Time;durP1;ratioP1;P1;durP2;ratioP2;P2;SDS_P1;SDS_P2;PMS_P1;PMS_P2;Temp;Humidity;BMP_temperature;BMP_pressure;BME280_temperature;BME280_humidity;BME280_pressure;Samples;Min_cycle;Max_cycle;Signal;HPM_P1;HPM_P2
2023/01/05 00:01:03;;;;;;;27.75;3.20;;;;;;;;;;5019907;28;20038;-73
2023/01/05 00:03:29;;;;;;;19.42;3.83;;;;;;;;;;5023444;28;20442;-74
2023/01/05 00:06:02;;;;;;;24.08;3.42;;;;;;;;;;5018366;28;20076;-74
2023/01/05 00:08:27;;;;;;;19.20;3.13;;;;;;;;;;5023215;28;20051;-74
2023/01/05 00:24:32;;;;;;;32.65;4.40;;;;;;;;;;5010253;28;20057;-74
2023/01/05 00:26:58;;;;;;;26.30;4.30;;;;;;;;;;5024254;28;20042;-73
2023/01/05 00:29:23;;;;;;;30.83;4.22;;;;;;;;;;5026418;28;20045;-73
2023/01/05 00:31:48;;;;;;;24.80;3.70;;;;;;;;;;5018446;28;20040;-74
2023/01/05 00:34:14;;;;;;;23.75;3.42;;;;;;;;;;5028616;28;20038;-73
2023/01/05 00:36:40;;;;;;;30.65;3.85;;;;;;;;;;5021530;28;20036;-73
2023/01/05 00:39:05;;;;;;;22.58;4.15;;;;;;;;;;5017830;28;20389;-74
2023/01/05 00:41:30;;;;;;;24.08;3.05;;;;;;;;;;5029429;28;20393;-74
2023/01/05 00:43:56;;;;;;;25.92;4.15;;;;;;;;;;5029329;28;20033;-73
2023/01/05 00:46:21;;;;;;;32.90;3.65;;;;;;;;;;5025759;28;20041;-74
2023/01/05 00:48:46;;;;;;;26.70;4.47;;;;;;;;;;5023236;28;20044;-73
2023/01/05 00:51:12;;;;;;;31.67;5.15;;;;;;;;;;5027615;28;20453;-74
2023/01/05 00:53:37;;;;;;;27.13;3.95;;;;;;;;;;5025243;28;20041;-73
2023/01/05 00:56:03;;;;;;;33.05;4.90;;;;;;;;;;5028253;28;20069;-73
2023/01/05 00:58:28;;;;;;;27.33;4.43;;;;;;;;;;5021053;28;20041;-73
2023/01/05 01:00:54;;;;;;;41.63;4.72;;;;;;;;;;5025616;28;20396;-74
2023/01/05 01:03:19;;;;;;;34.58;4.57;;;;;;;;;;5019492;28;20046;-73
2023/01/05 01:05:44;;;;;;;33.92;4.43;;;;;;;;;;5025706;28;20037;-73
2023/01/05 01:08:10;;;;;;;34.20;4.78;;;;;;;;;;5024454;28;20068;-73
2023/01/05 01:10:38;;;;;;;38.63;4.28;;;;;;;;;;5023672;28;20052;-74
2023/01/05 01:13:04;;;;;;;32.00;4.93;;;;;;;;;;5024710;28;20053;-73
2023/01/05 01:15:29;;;;;;;37.00;4.03;;;;;;;;;;5025522;28;20390;-73
2023/01/05 01:17:54;;;;;;;42.50;4.18;;;;;;;;;;5027084;28;20038;-73
2023/01/05 01:20:20;;;;;;;19.80;3.65;;;;;;;;;;5026626;28;20041;-73
2023/01/05 01:22:45;;;;;;;22.45;3.80;;;;;;;;;;5030658;28;20040;-74
2023/01/05 01:25:10;;;;;;;26.45;3.90;;;;;;;;;;5027318;28;20038;-73
2023/01/05 01:27:36;;;;;;;31.33;4.15;;;;;;;;;;5020011;28;20044;-74
2023/01/05 01:30:01;;;;;;;23.27;3.60;;;;;;;;;;5030271;28;21632;-73
2023/01/05 01:32:27;;;;;;;30.23;3.88;;;;;;;;;;5017366;28;20120;-74
2023/01/05 01:34:54;;;;;;;27.25;3.53;;;;;;;;;;5023456;28;20068;-73
2023/01/05 01:37:19;;;;;;;25.00;4.95;;;;;;;;;;5022288;28;20088;-73
2023/01/05 01:39:44;;;;;;;22.20;3.72;;;;;;;;;;5019911;28;20041;-74
2023/01/05 01:42:14;;;;;;;36.95;4.97;;;;;;;;;;5024964;28;20037;-73
2023/01/05 01:44:46;;;;;;;28.92;3.28;;;;;;;;;;5010498;28;20048;-74
2023/01/05 01:47:34;;;;;;;31.70;4.07;;;;;;;;;;5026618;28;20042;-74
2023/01/05 01:50:03;;;;;;;31.73;3.88;;;;;;;;;;5022503;28;20049;-74
2023/01/05 01:52:29;;;;;;;30.00;3.80;;;;;;;;;;5023767;28;20037;-73
2023/01/05 01:54:55;;;;;;;29.48;3.95;;;;;;;;;;5014769;28;20038;-73
2023/01/05 01:57:21;;;;;;;30.10;3.85;;;;;;;;;;5021536;28;20045;-73
2023/01/05 01:59:47;;;;;;;36.75;5.22;;;;;;;;;;5029159;28;20045;-73
2023/01/05 02:02:13;;;;;;;31.42;3.42;;;;;;;;;;5032912;28;20086;-74
2023/01/05 02:04:38;;;;;;;29.17;3.97;;;;;;;;;;5016846;28;20145;-73
2023/01/05 02:07:06;;;;;;;28.33;3.60;;;;;;;;;;5019509;28;20041;-73
2023/01/05 02:09:31;;;;;;;26.35;3.55;;;;;;;;;;5017479;28;20034;-74
2023/01/05 02:12:03;;;;;;;31.48;3.80;;;;;;;;;;5023165;28;20412;-73
2023/01/05 02:14:57;;;;;;;28.40;3.40;;;;;;;;;;5024881;28;20034;-73
2023/01/05 02:17:42;;;;;;;29.00;4.07;;;;;;;;;;5017320;28;20037;-73
2023/01/05 02:20:21;;;;;;;36.40;3.85;;;;;;;;;;5015562;28;20037;-73
2023/01/05 02:23:14;;;;;;;30.25;3.95;;;;;;;;;;5018652;28;20037;-73
2023/01/05 02:25:54;;;;;;;33.80;4.13;;;;;;;;;;5017886;28;20445;-73
2023/01/05 02:28:57;;;;;;;20.25;3.53;;;;;;;;;;5027583;28;20029;-73
2023/01/05 02:31:38;;;;;;;28.30;4.32;;;;;;;;;;5021158;28;20469;-73
2023/01/05 02:34:12;;;;;;;32.67;4.43;;;;;;;;;;5028027;28;20040;-73
2023/01/05 02:36:57;;;;;;;24.38;3.55;;;;;;;;;;5024381;28;20033;-73
2023/01/05 02:39:32;;;;;;;23.45;3.17;;;;;;;;;;5022752;28;20040;-74
2023/01/05 02:42:02;;;;;;;33.72;4.47;;;;;;;;;;5031463;28;20065;-73
2023/01/05 02:44:29;;;;;;;39.80;4.53;;;;;;;;;;5017436;28;20033;-73
2023/01/05 02:47:06;;;;;;;37.90;4.43;;;;;;;;;;5026162;28;20031;-73
2023/01/05 02:49:35;;;;;;;30.92;3.95;;;;;;;;;;5016509;28;20053;-75
2023/01/05 02:52:03;;;;;;;34.88;3.90;;;;;;;;;;5018493;28;20041;-73
2023/01/05 02:54:49;;;;;;;35.60;4.05;;;;;;;;;;5021947;28;20056;-73
2023/01/05 02:57:17;;;;;;;30.42;3.17;;;;;;;;;;5032283;28;20069;-73
2023/01/05 02:59:46;;;;;;;35.08;4.32;;;;;;;;;;5027731;28;20061;-73
2023/01/05 03:02:19;;;;;;;33.47;4.60;;;;;;;;;;5021567;28;20034;-74
2023/01/05 03:04:48;;;;;;;41.63;3.78;;;;;;;;;;5013502;28;20038;-73
2023/01/05 03:07:17;;;;;;;45.58;4.43;;;;;;;;;;5020240;28;20034;-73
2023/01/05 03:09:43;;;;;;;38.97;4.93;;;;;;;;;;5022957;28;20087;-74
2023/01/05 03:15:25;;;;;;;35.30;4.45;;;;;;;;;;5018933;28;20092;-73
2023/01/05 03:17:54;;;;;;;35.22;4.10;;;;;;;;;;5020437;28;20029;-73
2023/01/05 03:20:22;;;;;;;32.90;4.20;;;;;;;;;;5018158;28;20045;-73
2023/01/05 03:37:14;;;;;;;29.10;3.47;;;;;;;;;;5013335;28;20052;-73
2023/01/05 03:39:41;;;;;;;28.90;3.70;;;;;;;;;;5018903;28;20071;-73
2023/01/05 03:42:08;;;;;;;30.63;4.47;;;;;;;;;;5024731;28;20044;-73
2023/01/05 03:44:36;;;;;;;34.30;4.38;;;;;;;;;;5023083;28;20103;-74
2023/01/05 03:47:01;;;;;;;43.20;4.00;;;;;;;;;;5021647;28;20092;-73
2023/01/05 03:49:27;;;;;;;33.55;5.65;;;;;;;;;;5029062;28;20057;-73
2023/01/05 03:51:52;;;;;;;38.47;4.78;;;;;;;;;;5027515;28;20441;-73
2023/01/05 03:54:18;;;;;;;45.08;3.78;;;;;;;;;;5031366;28;20053;-73
2023/01/05 03:56:44;;;;;;;36.90;4.28;;;;;;;;;;5026211;28;20034;-74
2023/01/05 03:59:10;;;;;;;44.83;5.05;;;;;;;;;;5027560;28;20036;-73
2023/01/05 04:01:35;;;;;;;43.65;5.18;;;;;;;;;;5023953;28;20112;-74
2023/01/05 04:04:00;;;;;;;54.70;5.82;;;;;;;;;;5025636;28;20037;-73
2023/01/05 04:06:26;;;;;;;39.03;4.70;;;;;;;;;;5023267;28;20529;-74
2023/01/05 04:08:51;;;;;;;55.30;5.63;;;;;;;;;;5032864;28;20037;-73
2023/01/05 04:11:19;;;;;;;47.17;5.38;;;;;;;;;;5022134;28;20073;-75
2023/01/05 04:13:44;;;;;;;48.38;5.20;;;;;;;;;;5025365;28;20044;-74
2023/01/05 04:16:10;;;;;;;43.53;5.60;;;;;;;;;;5023489;28;20037;-74
2023/01/05 04:18:36;;;;;;;53.70;7.05;;;;;;;;;;5025707;28;20041;-74
2023/01/05 04:21:02;;;;;;;44.38;6.07;;;;;;;;;;5027520;28;20069;-73
2023/01/05 04:23:28;;;;;;;38.13;4.78;;;;;;;;;;5025425;28;20042;-74
2023/01/05 04:25:53;;;;;;;44.30;4.47;;;;;;;;;;5028806;28;20392;-74
2023/01/05 04:28:18;;;;;;;40.50;4.97;;;;;;;;;;5017692;28;20127;-74
2023/01/05 04:30:44;;;;;;;42.42;5.45;;;;;;;;;;5022774;28;20045;-75
2023/01/05 04:33:10;;;;;;;36.47;6.15;;;;;;;;;;5022292;28;20351;-73
2023/01/05 04:35:35;;;;;;;39.08;5.32;;;;;;;;;;5019674;28;20379;-75
2023/01/05 04:38:00;;;;;;;31.55;5.05;;;;;;;;;;5019646;28;20113;-73
2023/01/05 04:40:26;;;;;;;30.75;4.03;;;;;;;;;;5023591;28;20401;-73
2023/01/05 04:42:51;;;;;;;49.25;5.45;;;;;;;;;;5020375;28;20041;-74
2023/01/05 04:45:17;;;;;;;35.00;4.55;;;;;;;;;;5020457;28;20041;-74
2023/01/05 04:47:42;;;;;;;40.28;4.18;;;;;;;;;;5016905;28;20034;-74
2023/01/05 04:50:08;;;;;;;36.85;4.38;;;;;;;;;;5025792;28;20088;-73
2023/01/05 04:52:33;;;;;;;32.33;3.55;;;;;;;;;;5024596;28;20064;-74
2023/01/05 04:54:59;;;;;;;29.63;4.25;;;;;;;;;;5024572;28;20473;-73
2023/01/05 04:57:24;;;;;;;29.17;4.35;;;;;;;;;;5022663;28;20068;-73
2023/01/05 04:59:49;;;;;;;47.42;5.72;;;;;;;;;;5020792;28;20124;-74
2023/01/05 05:02:15;;;;;;;29.15;4.60;;;;;;;;;;5022951;28;20034;-73
2023/01/05 05:04:40;;;;;;;34.60;4.88;;;;;;;;;;5034039;28;20033;-73
2023/01/05 05:07:06;;;;;;;24.75;4.20;;;;;;;;;;5027487;28;20116;-73
2023/01/05 05:09:31;;;;;;;26.90;4.40;;;;;;;;;;5029516;28;20033;-74
2023/01/05 05:11:57;;;;;;;33.70;4.22;;;;;;;;;;5019676;28;20030;-74
2023/01/05 05:14:22;;;;;;;32.65;4.50;;;;;;;;;;5017094;28;20125;-73
2023/01/05 05:16:47;;;;;;;30.60;4.70;;;;;;;;;;5020895;28;20045;-73
2023/01/05 05:19:13;;;;;;;31.67;3.90;;;;;;;;;;5027578;28;20049;-74
2023/01/05 05:21:38;;;;;;;32.47;4.82;;;;;;;;;;5019506;28;20037;-74
2023/01/05 05:24:04;;;;;;;29.88;4.50;;;;;;;;;;5024325;28;20523;-73
2023/01/05 05:26:29;;;;;;;43.13;5.07;;;;;;;;;;5023943;28;20040;-74
2023/01/05 05:28:57;;;;;;;40.08;4.68;;;;;;;;;;5027786;28;20049;-73
2023/01/05 05:31:23;;;;;;;34.25;4.82;;;;;;;;;;5023036;28;20046;-73
2023/01/05 05:33:48;;;;;;;43.95;4.35;;;;;;;;;;5023940;28;20087;-74
2023/01/05 05:36:14;;;;;;;35.70;3.80;;;;;;;;;;5027463;28;20034;-74
2023/01/05 05:38:39;;;;;;;41.75;4.38;;;;;;;;;;5022676;28;20044;-74
2023/01/05 05:41:05;;;;;;;45.08;6.05;;;;;;;;;;5021560;28;20453;-74
2023/01/05 05:43:30;;;;;;;49.00;4.82;;;;;;;;;;5025398;28;20045;-74
2023/01/05 05:45:55;;;;;;;36.08;4.75;;;;;;;;;;5024395;28;20033;-73
2023/01/05 05:48:21;;;;;;;34.65;4.78;;;;;;;;;;5017255;28;20056;-74
2023/01/05 05:50:46;;;;;;;47.08;4.20;;;;;;;;;;5025630;28;20545;-74
2023/01/05 05:53:12;;;;;;;38.63;4.47;;;;;;;;;;5029741;28;20145;-74
2023/01/05 05:55:37;;;;;;;32.42;3.60;;;;;;;;;;5021060;28;20033;-74
2023/01/05 05:58:02;;;;;;;43.30;4.25;;;;;;;;;;5018876;28;20034;-74
2023/01/05 06:00:28;;;;;;;36.30;3.65;;;;;;;;;;5018280;28;20060;-74
2023/01/05 06:02:53;;;;;;;35.97;3.42;;;;;;;;;;5023969;28;20041;-73
2023/01/05 06:05:19;;;;;;;22.27;2.60;;;;;;;;;;5017175;28;20106;-74
2023/01/05 06:07:44;;;;;;;26.90;4.35;;;;;;;;;;5019139;28;20030;-74
2023/01/05 06:10:10;;;;;;;25.27;3.83;;;;;;;;;;5023955;28;20036;-74
2023/01/05 06:12:35;;;;;;;18.08;3.70;;;;;;;;;;5022331;28;20429;-74
2023/01/05 06:15:00;;;;;;;23.52;3.42;;;;;;;;;;5027537;28;20046;-74
2023/01/05 06:17:26;;;;;;;20.77;3.22;;;;;;;;;;5016317;28;20036;-73
2023/01/05 06:19:51;;;;;;;11.20;2.70;;;;;;;;;;5025661;28;20500;-73
2023/01/05 06:22:17;;;;;;;23.58;2.90;;;;;;;;;;5022261;28;20065;-74
2023/01/05 06:24:42;;;;;;;29.40;3.40;;;;;;;;;;5025922;28;20029;-74
2023/01/05 06:27:07;;;;;;;21.30;2.90;;;;;;;;;;5020339;28;20085;-74
2023/01/05 06:29:33;;;;;;;14.68;2.80;;;;;;;;;;5024159;28;20452;-74
2023/01/05 06:31:58;;;;;;;15.68;3.53;;;;;;;;;;5020760;28;20383;-74
2023/01/05 06:34:23;;;;;;;13.73;3.42;;;;;;;;;;5027298;28;20044;-74
2023/01/05 06:36:49;;;;;;;15.55;2.85;;;;;;;;;;5020167;28;20039;-74
2023/01/05 06:39:14;;;;;;;11.32;2.80;;;;;;;;;;5024113;28;20454;-74
2023/01/05 06:41:40;;;;;;;9.68;1.65;;;;;;;;;;5024513;28;20113;-74
2023/01/05 06:44:05;;;;;;;5.45;1.05;;;;;;;;;;5023621;28;20075;-74
2023/01/05 06:46:31;;;;;;;6.38;1.20;;;;;;;;;;5020868;28;20041;-74
2023/01/05 06:48:56;;;;;;;3.90;1.33;;;;;;;;;;5033250;28;20041;-74
2023/01/05 06:51:22;;;;;;;1.88;0.57;;;;;;;;;;5017994;28;20516;-73
2023/01/05 06:53:47;;;;;;;5.53;0.88;;;;;;;;;;5016151;28;20075;-74
2023/01/05 06:56:13;;;;;;;2.17;0.55;;;;;;;;;;5023645;28;20485;-75
2023/01/05 06:58:38;;;;;;;2.55;0.68;;;;;;;;;;5027357;28;20046;-73
2023/01/05 07:01:03;;;;;;;4.05;0.70;;;;;;;;;;5020625;28;20481;-73
2023/01/05 07:03:29;;;;;;;2.70;0.80;;;;;;;;;;5023680;28;20045;-74
2023/01/05 07:05:54;;;;;;;2.13;0.60;;;;;;;;;;5014864;28;20063;-74
2023/01/05 07:08:20;;;;;;;2.60;0.65;;;;;;;;;;5023395;28;20112;-73
2023/01/05 07:10:45;;;;;;;5.68;0.75;;;;;;;;;;5029964;28;20449;-74
2023/01/05 07:13:10;;;;;;;5.75;0.82;;;;;;;;;;5027153;28;20046;-73
2023/01/05 07:15:36;;;;;;;4.13;1.10;;;;;;;;;;5027987;28;20117;-74
2023/01/05 07:18:01;;;;;;;8.30;1.80;;;;;;;;;;5028652;28;20478;-73
2023/01/05 07:20:26;;;;;;;8.30;2.35;;;;;;;;;;5028526;28;20037;-73
2023/01/05 07:22:52;;;;;;;5.82;2.35;;;;;;;;;;5025727;28;20389;-74
2023/01/05 07:25:17;;;;;;;11.43;1.63;;;;;;;;;;5028236;28;20091;-74
2023/01/05 07:27:43;;;;;;;5.68;2.22;;;;;;;;;;5035079;28;20602;-74
2023/01/05 07:30:09;;;;;;;6.85;2.05;;;;;;;;;;5025082;28;20063;-74
2023/01/05 07:32:34;;;;;;;10.23;3.35;;;;;;;;;;5009345;28;20038;-74
2023/01/05 07:35:00;;;;;;;6.28;2.85;;;;;;;;;;5027266;28;20046;-74
2023/01/05 07:37:25;;;;;;;10.85;3.42;;;;;;;;;;5019067;28;20435;-73
2023/01/05 07:39:51;;;;;;;14.50;3.47;;;;;;;;;;5020657;28;20037;-74
2023/01/05 07:42:16;;;;;;;8.60;2.85;;;;;;;;;;5018620;28;20045;-74
2023/01/05 07:44:41;;;;;;;10.32;2.80;;;;;;;;;;5024525;28;20057;-74
2023/01/05 07:47:07;;;;;;;10.25;2.65;;;;;;;;;;5030053;28;20029;-74
2023/01/05 07:49:32;;;;;;;19.13;3.70;;;;;;;;;;5022841;28;20061;-74
2023/01/05 07:51:58;;;;;;;13.63;3.63;;;;;;;;;;5023337;28;20482;-74
2023/01/05 07:54:23;;;;;;;14.15;2.60;;;;;;;;;;5031566;28;20042;-73
2023/01/05 07:56:48;;;;;;;16.25;3.25;;;;;;;;;;5025028;28;20421;-74
2023/01/05 07:59:15;;;;;;;11.23;3.30;;;;;;;;;;5034709;28;20049;-73
2023/01/05 08:01:40;;;;;;;15.57;3.10;;;;;;;;;;5031038;28;20034;-75
2023/01/05 08:04:06;;;;;;;19.17;4.28;;;;;;;;;;5021570;28;20100;-74
2023/01/05 08:06:33;;;;;;;13.43;3.00;;;;;;;;;;5020351;28;20150;-74
2023/01/05 08:10:27;;;;;;;9.85;3.08;;;;;;;;;;5021361;28;20060;-73
2023/01/05 08:11:43;;;;;;;18.30;3.53;;;;;;;;;;5018202;28;20042;-74
2023/01/05 08:14:09;;;;;;;21.25;1.98;;;;;;;;;;5022504;28;20245;-74
2023/01/05 08:16:34;;;;;;;13.50;2.53;;;;;;;;;;5017112;28;20041;-74
2023/01/05 08:18:59;;;;;;;18.42;2.88;;;;;;;;;;5025512;28;20101;-73
2023/01/05 08:21:25;;;;;;;15.88;3.10;;;;;;;;;;5027780;28;20030;-74
2023/01/05 08:23:52;;;;;;;20.58;4.05;;;;;;;;;;5017015;28;20095;-74
2023/01/05 08:26:19;;;;;;;12.38;3.50;;;;;;;;;;5030814;28;20030;-73
2023/01/05 08:28:45;;;;;;;18.30;2.80;;;;;;;;;;5031926;28;20405;-73
2023/01/05 08:31:15;;;;;;;13.73;3.42;;;;;;;;;;5028410;28;20038;-74
2023/01/05 08:33:40;;;;;;;8.18;2.33;;;;;;;;;;5035159;28;20104;-74
2023/01/05 08:36:10;;;;;;;9.98;2.20;;;;;;;;;;5025445;28;20124;-74
2023/01/05 08:38:36;;;;;;;12.45;3.50;;;;;;;;;;5025247;28;20045;-74
2023/01/05 08:41:01;;;;;;;16.70;4.43;;;;;;;;;;5027589;28;20041;-74
2023/01/05 08:43:27;;;;;;;19.73;4.68;;;;;;;;;;5022375;28;20132;-74
2023/01/05 08:45:52;;;;;;;19.70;4.00;;;;;;;;;;5021272;28;20065;-74
2023/01/05 08:48:18;;;;;;;16.27;4.93;;;;;;;;;;5017899;28;20397;-74
2023/01/05 08:50:43;;;;;;;19.08;4.13;;;;;;;;;;5016273;28;20121;-74
2023/01/05 08:53:09;;;;;;;15.85;4.05;;;;;;;;;;5017727;28;20030;-73
2023/01/05 08:55:35;;;;;;;10.35;3.72;;;;;;;;;;5017973;28;20085;-74
2023/01/05 08:58:00;;;;;;;13.82;2.92;;;;;;;;;;5020072;28;20041;-74
2023/01/05 09:00:26;;;;;;;10.60;3.10;;;;;;;;;;5021934;28;20046;-74
2023/01/05 09:02:51;;;;;;;16.92;2.88;;;;;;;;;;5021459;28;20033;-75
2023/01/05 09:05:17;;;;;;;14.40;2.95;;;;;;;;;;5005806;28;20065;-75
2023/01/05 09:07:43;;;;;;;14.23;3.17;;;;;;;;;;5023635;28;20049;-74
2023/01/05 09:10:09;;;;;;;22.08;4.22;;;;;;;;;;5015562;28;20030;-74
2023/01/05 09:12:35;;;;;;;13.88;3.35;;;;;;;;;;5017916;28;20759;-74
2023/01/05 09:15:01;;;;;;;15.90;3.10;;;;;;;;;;5001641;28;20041;-74
2023/01/05 09:17:26;;;;;;;14.50;2.95;;;;;;;;;;5025607;28;20029;-74
2023/01/05 09:19:52;;;;;;;17.83;3.75;;;;;;;;;;5016500;28;20116;-75
2023/01/05 09:22:17;;;;;;;20.60;3.33;;;;;;;;;;5016679;28;20069;-74
2023/01/05 09:24:43;;;;;;;17.85;3.63;;;;;;;;;;5014130;28;20062;-75
2023/01/05 09:27:09;;;;;;;14.77;3.38;;;;;;;;;;5019591;28;20041;-74
2023/01/05 09:29:34;;;;;;;20.45;2.95;;;;;;;;;;5021258;28;20042;-73
2023/01/05 09:31:59;;;;;;;25.40;3.85;;;;;;;;;;5015820;28;20949;-73
2023/01/05 09:34:25;;;;;;;26.35;3.63;;;;;;;;;;5015156;28;20083;-74
2023/01/05 09:36:50;;;;;;;19.98;3.17;;;;;;;;;;5017966;28;20037;-74
2023/01/05 09:39:16;;;;;;;20.63;3.10;;;;;;;;;;5018003;28;20030;-76
2023/01/05 09:41:45;;;;;;;21.30;3.10;;;;;;;;;;5019929;28;20034;-74
2023/01/05 09:44:25;;;;;;;15.57;3.00;;;;;;;;;;5041374;28;20470;-74
2023/01/05 09:46:51;;;;;;;15.13;3.42;;;;;;;;;;5020185;28;20025;-73
2023/01/05 09:49:20;;;;;;;20.88;3.30;;;;;;;;;;5021240;28;20893;-73
2023/01/05 09:51:46;;;;;;;25.15;3.45;;;;;;;;;;5025131;28;20033;-73
2023/01/05 09:54:17;;;;;;;18.67;2.28;;;;;;;;;;5033342;28;20034;-73
2023/01/05 09:56:46;;;;;;;18.02;2.58;;;;;;;;;;5016246;28;20543;-73
2023/01/05 09:59:17;;;;;;;9.70;3.15;;;;;;;;;;5023921;28;20029;-74
2023/01/05 10:01:44;;;;;;;10.10;1.90;;;;;;;;;;5024571;28;20409;-75
2023/01/05 10:04:20;;;;;;;15.70;4.53;;;;;;;;;;4998400;28;20029;-73
2023/01/05 10:06:49;;;;;;;15.63;4.13;;;;;;;;;;5020005;28;20040;-74
2023/01/05 10:09:21;;;;;;;14.70;4.88;;;;;;;;;;5022111;28;20040;-73
2023/01/05 10:14:53;;;;;;;8.40;2.25;;;;;;;;;;5018703;28;20042;-73
2023/01/05 10:17:20;;;;;;;8.65;2.03;;;;;;;;;;5022564;28;20060;-73
2023/01/05 10:19:47;;;;;;;7.18;1.95;;;;;;;;;;4992745;28;20393;-73
2023/01/05 10:22:43;;;;;;;10.85;2.95;;;;;;;;;;5022937;28;20033;-74
2023/01/05 10:25:33;;;;;;;8.82;2.05;;;;;;;;;;5007462;28;20049;-73
2023/01/05 10:28:14;;;;;;;10.15;2.60;;;;;;;;;;5021642;28;20040;-73
2023/01/05 10:30:57;;;;;;;11.00;3.05;;;;;;;;;;5026097;28;20042;-73
2023/01/05 10:33:51;;;;;;;10.88;2.45;;;;;;;;;;5022387;28;20117;-73
2023/01/05 10:36:16;;;;;;;;;;;;;;;;;;5012903;28;20148;-73
2023/01/05 10:38:54;;;;;;;6.35;2.03;;;;;;;;;;5015004;28;20017;-72
2023/01/05 10:41:34;;;;;;;11.48;2.28;;;;;;;;;;5010540;28;20045;-73
2023/01/05 10:44:18;;;;;;;10.80;2.45;;;;;;;;;;5025836;28;20044;-73
2023/01/05 10:46:45;;;;;;;;;;;;;;;;;;5017456;28;20045;-73
2023/01/05 10:49:15;;;;;;;12.73;2.42;;;;;;;;;;5038266;28;19921;-73
2023/01/05 10:51:41;;;;;;;10.10;2.90;;;;;;;;;;5013959;28;20034;-74
2023/01/05 10:54:28;;;;;;;10.50;1.60;;;;;;;;;;5017794;28;20048;-73
2023/01/05 10:56:54;;;;;;;9.60;2.47;;;;;;;;;;5013619;28;20040;-73
2023/01/05 10:59:20;;;;;;;11.82;2.30;;;;;;;;;;5009954;28;20033;-73
2023/01/05 11:01:46;;;;;;;11.40;1.80;;;;;;;;;;5019260;28;20049;-73
2023/01/05 11:04:15;;;;;;;12.45;2.22;;;;;;;;;;5024650;28;20494;-73
2023/01/05 11:06:41;;;;;;;12.45;1.80;;;;;;;;;;5000125;28;20037;-74
2023/01/05 11:09:09;;;;;;;9.82;2.17;;;;;;;;;;5015052;28;20072;-73
2023/01/05 11:11:35;;;;;;;15.70;1.90;;;;;;;;;;5012806;28;20104;-73
2023/01/05 11:14:01;;;;;;;11.70;1.50;;;;;;;;;;5014768;28;20470;-73
2023/01/05 11:16:32;;;;;;;14.88;1.95;;;;;;;;;;5017722;28;20100;-73
2023/01/05 11:19:00;;;;;;;11.32;1.77;;;;;;;;;;5017776;28;20136;-73
2023/01/05 11:21:29;;;;;;;12.77;2.33;;;;;;;;;;5010726;28;20048;-73
2023/01/05 11:23:56;;;;;;;12.48;2.03;;;;;;;;;;5018503;28;20470;-73
2023/01/05 11:26:27;;;;;;;12.38;2.05;;;;;;;;;;5018634;28;20034;-73
2023/01/05 11:28:59;;;;;;;13.32;1.35;;;;;;;;;;5018250;28;20490;-74
2023/01/05 11:31:36;;;;;;;6.40;1.13;;;;;;;;;;5021289;28;20087;-73
2023/01/05 11:34:13;;;;;;;8.05;1.13;;;;;;;;;;5013080;28;20044;-73
2023/01/05 11:36:38;;;;;;;12.98;1.63;;;;;;;;;;5016404;28;20034;-73
2023/01/05 11:39:04;;;;;;;12.77;1.88;;;;;;;;;;5006566;28;20037;-73
2023/01/05 11:41:29;;;;;;;7.03;1.17;;;;;;;;;;5022029;28;20041;-73
2023/01/05 11:43:59;;;;;;;9.35;1.95;;;;;;;;;;5022794;28;20034;-73
2023/01/05 11:46:24;;;;;;;7.20;1.20;;;;;;;;;;5016070;28;20037;-74
2023/01/05 11:48:53;;;;;;;7.00;1.40;;;;;;;;;;5020553;28;20052;-73
2023/01/05 11:51:39;;;;;;;8.65;1.55;;;;;;;;;;4994063;28;20382;-73
2023/01/05 11:54:25;;;;;;;8.43;1.80;;;;;;;;;;5020298;28;20489;-73
2023/01/05 11:57:05;;;;;;;3.63;1.00;;;;;;;;;;5017897;28;20026;-73
2023/01/05 11:59:31;;;;;;;7.70;1.05;;;;;;;;;;5015894;28;20041;-75
2023/01/05 12:02:02;;;;;;;10.90;2.10;;;;;;;;;;5023464;28;20045;-75
2023/01/05 12:04:36;;;;;;;7.40;1.67;;;;;;;;;;5024432;28;20068;-73
2023/01/05 12:07:22;;;;;;;10.40;1.75;;;;;;;;;;5017697;28;20037;-73
2023/01/05 12:10:01;;;;;;;6.90;1.13;;;;;;;;;;5013392;28;20476;-73
2023/01/05 12:12:45;;;;;;;9.82;1.85;;;;;;;;;;5017220;28;20148;-74
2023/01/05 12:15:33;;;;;;;;;;;;;;;;;;5026047;28;20037;-74
2023/01/05 12:18:36;;;;;;;4.45;1.25;;;;;;;;;;5038769;28;19924;-73
2023/01/05 12:21:23;;;;;;;7.78;2.00;;;;;;;;;;5027140;28;20041;-73
2023/01/05 12:24:10;;;;;;;7.20;1.60;;;;;;;;;;5010393;28;20037;-73
2023/01/05 12:26:44;;;;;;;6.68;2.08;;;;;;;;;;5015912;28;20048;-73
2023/01/05 12:29:40;;;;;;;11.13;2.33;;;;;;;;;;5020021;28;20041;-74
2023/01/05 12:32:27;;;;;;;16.83;1.70;;;;;;;;;;5027763;28;20485;-73
2023/01/05 12:35:26;;;;;;;5.40;1.23;;;;;;;;;;5014198;28;20104;-73
2023/01/05 12:38:02;;;;;;;8.65;1.83;;;;;;;;;;5019168;28;20051;-74
2023/01/05 12:40:38;;;;;;;7.88;1.67;;;;;;;;;;5017784;28;20041;-73
2023/01/05 12:43:07;;;;;;;11.77;2.53;;;;;;;;;;5015609;28;20033;-74
2023/01/05 12:46:04;;;;;;;7.80;1.60;;;;;;;;;;5032086;28;20124;-74
2023/01/05 12:48:34;;;;;;;10.07;1.80;;;;;;;;;;5023250;28;20041;-75
2023/01/05 12:51:03;;;;;;;13.27;1.83;;;;;;;;;;5022813;28;20069;-74
2023/01/05 12:53:34;;;;;;;11.85;1.92;;;;;;;;;;5009743;28;20049;-73
2023/01/05 12:56:15;;;;;;;11.80;1.52;;;;;;;;;;5032622;28;20493;-73
2023/01/05 12:58:50;;;;;;;10.65;1.33;;;;;;;;;;5017567;28;20500;-73
2023/01/05 13:01:21;;;;;;;9.43;1.55;;;;;;;;;;5016817;28;20038;-73
2023/01/05 13:04:04;;;;;;;11.68;1.65;;;;;;;;;;5012196;28;20096;-73
2023/01/05 13:06:38;;;;;;;12.87;2.30;;;;;;;;;;5019641;28;20210;-73
2023/01/05 13:09:12;;;;;;;12.77;1.92;;;;;;;;;;5012522;28;20064;-73
2023/01/05 13:11:48;;;;;;;7.82;1.70;;;;;;;;;;5027775;28;20041;-73
2023/01/05 13:14:23;;;;;;;14.07;1.73;;;;;;;;;;5017147;28;20540;-74
2023/01/05 13:16:54;;;;;;;9.70;1.40;;;;;;;;;;5020943;28;20034;-74
2023/01/05 13:19:23;;;;;;;10.05;1.80;;;;;;;;;;5020998;28;20049;-73
2023/01/05 13:21:51;;;;;;;12.85;1.83;;;;;;;;;;5023633;28;20038;-75
2023/01/05 13:24:34;;;;;;;6.85;1.73;;;;;;;;;;5055169;28;20099;-73
2023/01/05 13:27:00;;;;;;;8.82;1.42;;;;;;;;;;5024307;28;20043;-74
2023/01/05 13:29:47;;;;;;;4.78;1.23;;;;;;;;;;5013429;28;20038;-73
2023/01/05 13:32:19;;;;;;;10.45;1.98;;;;;;;;;;5024413;28;20033;-73
2023/01/05 13:35:07;;;;;;;11.98;1.95;;;;;;;;;;5016536;28;20069;-73
2023/01/05 13:38:08;;;;;;;12.85;1.40;;;;;;;;;;5019512;28;20095;-74
2023/01/05 13:41:14;;;;;;;6.93;1.23;;;;;;;;;;4998247;28;20061;-74
2023/01/05 13:44:21;;;;;;;10.23;1.80;;;;;;;;;;5021524;28;20143;-73
2023/01/05 13:47:05;;;;;;;5.72;1.35;;;;;;;;;;5017275;28;20517;-73
2023/01/05 13:49:51;;;;;;;;;;;;;;;;;;5023824;28;20046;-73
2023/01/05 13:52:45;;;;;;;7.60;1.10;;;;;;;;;;5018383;28;19918;-73
2023/01/05 13:55:14;;;;;;;6.72;1.10;;;;;;;;;;4988422;28;20404;-73
2023/01/05 13:57:41;;;;;;;7.45;1.35;;;;;;;;;;5020912;28;20033;-73
2023/01/05 14:00:20;;;;;;;8.82;1.45;;;;;;;;;;5015791;28;20030;-73
2023/01/05 14:03:05;;;;;;;5.97;1.27;;;;;;;;;;5016805;28;20084;-73
2023/01/05 14:05:36;;;;;;;8.93;1.50;;;;;;;;;;5012857;28;20037;-74
2023/01/05 14:08:04;;;;;;;14.05;1.65;;;;;;;;;;5017121;28;20042;-74
2023/01/05 14:10:31;;;;;;;11.30;1.40;;;;;;;;;;5012967;28;20519;-73
2023/01/05 14:12:57;;;;;;;7.15;1.70;;;;;;;;;;5018137;28;20037;-73
2023/01/05 14:15:42;;;;;;;6.53;1.45;;;;;;;;;;5014561;28;20065;-73
2023/01/05 14:18:12;;;;;;;7.45;1.75;;;;;;;;;;5013779;28;20041;-74
2023/01/05 14:20:47;;;;;;;12.18;1.77;;;;;;;;;;5015981;28;20060;-73
2023/01/05 14:23:25;;;;;;;6.45;1.50;;;;;;;;;;5010273;28;20041;-75
2023/01/05 14:25:54;;;;;;;6.63;1.60;;;;;;;;;;5016401;28;20041;-72
2023/01/05 14:28:34;;;;;;;11.23;1.98;;;;;;;;;;5011749;28;20112;-73
2023/01/05 14:31:15;;;;;;;10.55;1.50;;;;;;;;;;5010216;28;20120;-73
2023/01/05 14:33:56;;;;;;;6.43;1.45;;;;;;;;;;5025478;28;20121;-73
2023/01/05 14:36:42;;;;;;;9.02;1.55;;;;;;;;;;5011241;28;20168;-72
2023/01/05 14:39:17;;;;;;;10.15;1.65;;;;;;;;;;5014582;28;20045;-73
2023/01/05 14:41:44;;;;;;;10.07;1.17;;;;;;;;;;5012975;28;20117;-72
2023/01/05 14:44:20;;;;;;;9.10;2.40;;;;;;;;;;5011328;28;20120;-73
2023/01/05 14:46:56;;;;;;;6.30;1.15;;;;;;;;;;5009399;28;20465;-73
2023/01/05 14:49:29;;;;;;;6.18;1.23;;;;;;;;;;5022650;28;20049;-73
2023/01/05 14:51:57;;;;;;;7.72;1.35;;;;;;;;;;5015973;28;20448;-73
2023/01/05 14:54:40;;;;;;;6.30;1.20;;;;;;;;;;5019238;28;20045;-73
2023/01/05 14:57:32;;;;;;;7.22;1.73;;;;;;;;;;5024611;28;20489;-73
2023/01/05 15:00:12;;;;;;;5.88;0.88;;;;;;;;;;5022951;28;20041;-73
2023/01/05 15:03:01;;;;;;;9.02;1.60;;;;;;;;;;5018511;28;20068;-73
2023/01/05 15:05:27;;;;;;;6.20;1.60;;;;;;;;;;5009728;28;20095;-73
2023/01/05 15:08:22;;;;;;;10.10;1.67;;;;;;;;;;5013769;28;20046;-73
2023/01/05 15:11:04;;;;;;;7.47;1.00;;;;;;;;;;5007997;28;20108;-73
2023/01/05 15:13:32;;;;;;;8.25;1.48;;;;;;;;;;5015116;28;20064;-73
2023/01/05 15:16:19;;;;;;;6.88;1.80;;;;;;;;;;5020373;28;20044;-72
2023/01/05 15:18:58;;;;;;;7.97;1.55;;;;;;;;;;5024455;28;20037;-72
2023/01/05 15:21:38;;;;;;;12.27;4.32;;;;;;;;;;5018945;28;20054;-73
2023/01/05 15:24:22;;;;;;;16.17;5.15;;;;;;;;;;5007006;28;20070;-72
2023/01/05 15:27:01;;;;;;;12.05;4.00;;;;;;;;;;5018609;28;20069;-74